Terminal Aerodrome Forecast
Issued by NWS Cleveland, OH

Home | Current Version | Previous Version | Graphics & Text | Print | Product List | Glossary On
Versions: 1 2 3 4 5 6 7 8 9 10 11 12 13 14 15 16 17 18 19
000
FTUS41 KCLE 211300 AAA
TAFYNG
TAF AMD
KYNG 211310Z 2113/2212 00000KT P6SM SCT070
     FM211600 VRB03KT P6SM BKN045
     FM212200 VRB03KT P6SM SKC
      TEMPO 2210/2212 4SM BR=

USA.gov is the U.S. government's official web portal to all federal, state and local government web resources and services.